sensor_id;sensor_type;location;lat;lon;timestamp;temperature;humidity
11505;DHT22;5809;53.262;10.408;2024-03-07T00:00:06;2.30;99.90
11505;DHT22;5809;53.262;10.408;2024-03-07T00:05:07;2.40;99.90
11505;DHT22;5809;53.262;10.408;2024-03-07T00:07:36;2.40;99.90
11505;DHT22;5809;53.262;10.408;2024-03-07T00:10:04;2.40;99.90
11505;DHT22;5809;53.262;10.408;2024-03-07T00:12:32;2.40;99.90
11505;DHT22;5809;53.262;10.408;2024-03-07T00:15:01;2.50;99.90
11505;DHT22;5809;53.262;10.408;2024-03-07T00:19:55;2.60;99.90
11505;DHT22;5809;53.262;10.408;2024-03-07T00:24:53;2.60;99.90
11505;DHT22;5809;53.262;10.408;2024-03-07T00:27:20;2.70;99.90
11505;DHT22;5809;53.262;10.408;2024-03-07T00:29:47;2.70;99.90
11505;DHT22;5809;53.262;10.408;2024-03-07T00:32:19;2.70;99.90
11505;DHT22;5809;53.262;10.408;2024-03-07T00:34:45;2.80;99.90
11505;DHT22;5809;53.262;10.408;2024-03-07T00:37:12;2.80;99.90
11505;DHT22;5809;53.262;10.408;2024-03-07T00:42:08;2.90;99.90
11505;DHT22;5809;53.262;10.408;2024-03-07T00:44:34;2.90;99.90
11505;DHT22;5809;53.262;10.408;2024-03-07T00:47:02;2.90;99.90
11505;DHT22;5809;53.262;10.408;2024-03-07T00:49:30;3.00;99.90
11505;DHT22;5809;53.262;10.408;2024-03-07T00:51:57;3.10;99.90
11505;DHT22;5809;53.262;10.408;2024-03-07T00:54:24;2.90;99.90
11505;DHT22;5809;53.262;10.408;2024-03-07T00:56:51;3.00;99.90
11505;DHT22;5809;53.262;10.408;2024-03-07T00:59:20;3.00;99.90
11505;DHT22;5809;53.262;10.408;2024-03-07T01:01:46;3.00;99.90
11505;DHT22;5809;53.262;10.408;2024-03-07T01:04:14;3.00;99.90
11505;DHT22;5809;53.262;10.408;2024-03-07T01:06:41;3.00;99.90
11505;DHT22;5809;53.262;10.408;2024-03-07T01:09:08;3.00;99.90
11505;DHT22;5809;53.262;10.408;2024-03-07T01:11:40;3.10;99.90
11505;DHT22;5809;53.262;10.408;2024-03-07T01:14:07;3.10;99.90
11505;DHT22;5809;53.262;10.408;2024-03-07T01:16:35;3.10;99.90
11505;DHT22;5809;53.262;10.408;2024-03-07T01:21:31;3.20;99.90
11505;DHT22;5809;53.262;10.408;2024-03-07T01:23:58;3.10;99.90
11505;DHT22;5809;53.262;10.408;2024-03-07T01:26:26;3.20;99.90
11505;DHT22;5809;53.262;10.408;2024-03-07T01:28:52;3.20;99.90
11505;DHT22;5809;53.262;10.408;2024-03-07T01:31:20;3.20;99.90
11505;DHT22;5809;53.262;10.408;2024-03-07T01:33:49;3.20;99.90
11505;DHT22;5809;53.262;10.408;2024-03-07T01:36:16;3.20;99.90
11505;DHT22;5809;53.262;10.408;2024-03-07T01:41:10;3.30;99.90
11505;DHT22;5809;53.262;10.408;2024-03-07T01:43:37;3.30;99.90
11505;DHT22;5809;53.262;10.408;2024-03-07T01:46:04;3.40;99.90
11505;DHT22;5809;53.262;10.408;2024-03-07T01:48:31;3.40;99.90
11505;DHT22;5809;53.262;10.408;2024-03-07T01:51:00;3.50;99.90
11505;DHT22;5809;53.262;10.408;2024-03-07T01:53:29;3.50;99.90
11505;DHT22;5809;53.262;10.408;2024-03-07T01:55:57;3.50;99.90
11505;DHT22;5809;53.262;10.408;2024-03-07T01:58:25;3.50;99.90
11505;DHT22;5809;53.262;10.408;2024-03-07T02:00:52;3.50;99.90
11505;DHT22;5809;53.262;10.408;2024-03-07T02:03:19;3.60;99.90
11505;DHT22;5809;53.262;10.408;2024-03-07T02:08:14;3.60;99.90
11505;DHT22;5809;53.262;10.408;2024-03-07T02:10:41;3.60;99.90
11505;DHT22;5809;53.262;10.408;2024-03-07T02:13:08;3.60;99.90
11505;DHT22;5809;53.262;10.408;2024-03-07T02:15:35;3.60;99.90
11505;DHT22;5809;53.262;10.408;2024-03-07T02:18:02;3.70;99.90
11505;DHT22;5809;53.262;10.408;2024-03-07T02:20:29;3.70;99.90
11505;DHT22;5809;53.262;10.408;2024-03-07T02:22:57;3.70;99.90
11505;DHT22;5809;53.262;10.408;2024-03-07T02:25:24;3.70;99.90
11505;DHT22;5809;53.262;10.408;2024-03-07T02:27:50;3.70;99.90
11505;DHT22;5809;53.262;10.408;2024-03-07T02:30:17;3.70;99.90
11505;DHT22;5809;53.262;10.408;2024-03-07T02:32:46;3.70;99.90
11505;DHT22;5809;53.262;10.408;2024-03-07T02:35:17;3.70;99.90
11505;DHT22;5809;53.262;10.408;2024-03-07T02:37:44;3.80;99.90
11505;DHT22;5809;53.262;10.408;2024-03-07T02:40:14;3.70;99.90
11505;DHT22;5809;53.262;10.408;2024-03-07T02:42:41;3.80;99.90
11505;DHT22;5809;53.262;10.408;2024-03-07T02:45:08;3.80;99.90
11505;DHT22;5809;53.262;10.408;2024-03-07T02:47:36;3.80;99.90
11505;DHT22;5809;53.262;10.408;2024-03-07T02:50:04;4.70;99.90
11505;DHT22;5809;53.262;10.408;2024-03-07T02:55:00;3.80;99.90
11505;DHT22;5809;53.262;10.408;2024-03-07T02:57:30;3.80;99.90
11505;DHT22;5809;53.262;10.408;2024-03-07T02:59:57;5.30;99.90
11505;DHT22;5809;53.262;10.408;2024-03-07T03:02:23;3.90;99.90
11505;DHT22;5809;53.262;10.408;2024-03-07T03:07:18;3.90;99.90
11505;DHT22;5809;53.262;10.408;2024-03-07T03:09:44;3.90;99.90
11505;DHT22;5809;53.262;10.408;2024-03-07T03:12:11;3.90;99.90
11505;DHT22;5809;53.262;10.408;2024-03-07T03:14:39;4.60;99.90
11505;DHT22;5809;53.262;10.408;2024-03-07T03:17:07;5.00;99.90
11505;DHT22;5809;53.262;10.408;2024-03-07T03:19:36;4.00;99.90
11505;DHT22;5809;53.262;10.408;2024-03-07T03:22:03;4.00;99.90
11505;DHT22;5809;53.262;10.408;2024-03-07T03:24:30;4.10;99.90
11505;DHT22;5809;53.262;10.408;2024-03-07T03:26:57;4.10;99.90
11505;DHT22;5809;53.262;10.408;2024-03-07T03:29:24;4.10;99.90
11505;DHT22;5809;53.262;10.408;2024-03-07T03:31:55;4.60;99.90
11505;DHT22;5809;53.262;10.408;2024-03-07T03:34:22;4.20;99.90
11505;DHT22;5809;53.262;10.408;2024-03-07T03:36:48;4.60;99.90
11505;DHT22;5809;53.262;10.408;2024-03-07T03:39:15;4.30;99.90
11505;DHT22;5809;53.262;10.408;2024-03-07T03:41:42;4.30;99.90
11505;DHT22;5809;53.262;10.408;2024-03-07T03:44:09;4.30;99.90
11505;DHT22;5809;53.262;10.408;2024-03-07T03:46:37;8.50;99.90
11505;DHT22;5809;53.262;10.408;2024-03-07T03:49:05;4.30;99.90
11505;DHT22;5809;53.262;10.408;2024-03-07T03:51:32;4.30;99.90
11505;DHT22;5809;53.262;10.408;2024-03-07T03:53:59;4.30;99.90
11505;DHT22;5809;53.262;10.408;2024-03-07T03:58:53;4.30;99.90
11505;DHT22;5809;53.262;10.408;2024-03-07T04:01:20;4.20;99.90
11505;DHT22;5809;53.262;10.408;2024-03-07T04:03:46;4.20;99.90
11505;DHT22;5809;53.262;10.408;2024-03-07T04:06:15;4.00;99.90
11505;DHT22;5809;53.262;10.408;2024-03-07T04:08:41;4.00;99.90
11505;DHT22;5809;53.262;10.408;2024-03-07T04:13:36;4.00;99.90
11505;DHT22;5809;53.262;10.408;2024-03-07T04:16:03;4.10;99.90
11505;DHT22;5809;53.262;10.408;2024-03-07T04:18:30;4.00;99.90
11505;DHT22;5809;53.262;10.408;2024-03-07T04:20:57;3.90;99.90
11505;DHT22;5809;53.262;10.408;2024-03-07T04:23:25;3.90;99.90
11505;DHT22;5809;53.262;10.408;2024-03-07T04:28:21;3.80;99.90
11505;DHT22;5809;53.262;10.408;2024-03-07T04:30:48;3.80;99.90
11505;DHT22;5809;53.262;10.408;2024-03-07T04:33:15;3.80;99.90
11505;DHT22;5809;53.262;10.408;2024-03-07T04:38:09;3.80;99.90
11505;DHT22;5809;53.262;10.408;2024-03-07T04:40:41;3.80;99.90
11505;DHT22;5809;53.262;10.408;2024-03-07T04:43:08;3.70;99.90
11505;DHT22;5809;53.262;10.408;2024-03-07T04:45:36;3.70;99.90
11505;DHT22;5809;53.262;10.408;2024-03-07T04:48:03;3.70;99.90
11505;DHT22;5809;53.262;10.408;2024-03-07T04:52:57;3.60;99.90
11505;DHT22;5809;53.262;10.408;2024-03-07T04:55:24;3.60;99.90
11505;DHT22;5809;53.262;10.408;2024-03-07T04:57:52;3.50;99.90
11505;DHT22;5809;53.262;10.408;2024-03-07T05:02:47;3.50;99.90
11505;DHT22;5809;53.262;10.408;2024-03-07T05:05:15;3.40;99.90
11505;DHT22;5809;53.262;10.408;2024-03-07T05:07:47;3.40;99.90
11505;DHT22;5809;53.262;10.408;2024-03-07T05:10:15;3.30;99.90
11505;DHT22;5809;53.262;10.408;2024-03-07T05:12:42;3.40;99.90
11505;DHT22;5809;53.262;10.408;2024-03-07T05:15:10;3.30;99.90
11505;DHT22;5809;53.262;10.408;2024-03-07T05:17:37;3.40;99.90
11505;DHT22;5809;53.262;10.408;2024-03-07T05:20:05;3.30;99.90
11505;DHT22;5809;53.262;10.408;2024-03-07T05:22:35;3.30;99.90
11505;DHT22;5809;53.262;10.408;2024-03-07T05:25:05;3.30;99.90
11505;DHT22;5809;53.262;10.408;2024-03-07T05:27:32;3.30;99.90
11505;DHT22;5809;53.262;10.408;2024-03-07T05:29:59;3.20;99.90
11505;DHT22;5809;53.262;10.408;2024-03-07T05:32:27;3.20;99.90
11505;DHT22;5809;53.262;10.408;2024-03-07T05:34:54;3.20;99.90
11505;DHT22;5809;53.262;10.408;2024-03-07T05:37:21;3.20;99.90
11505;DHT22;5809;53.262;10.408;2024-03-07T05:39:48;3.10;99.90
11505;DHT22;5809;53.262;10.408;2024-03-07T05:42:15;3.10;99.90
11505;DHT22;5809;53.262;10.408;2024-03-07T05:44:42;3.10;99.90
11505;DHT22;5809;53.262;10.408;2024-03-07T05:47:10;3.10;99.90
11505;DHT22;5809;53.262;10.408;2024-03-07T05:49:40;3.00;99.90
11505;DHT22;5809;53.262;10.408;2024-03-07T05:52:07;2.90;99.90
11505;DHT22;5809;53.262;10.408;2024-03-07T05:54:34;2.90;99.90
11505;DHT22;5809;53.262;10.408;2024-03-07T05:57:01;2.80;99.90
11505;DHT22;5809;53.262;10.408;2024-03-07T06:04:23;2.80;99.90
11505;DHT22;5809;53.262;10.408;2024-03-07T06:06:51;2.90;99.90
11505;DHT22;5809;53.262;10.408;2024-03-07T06:09:19;2.90;99.90
11505;DHT22;5809;53.262;10.408;2024-03-07T06:11:48;2.90;99.90
11505;DHT22;5809;53.262;10.408;2024-03-07T06:14:15;2.80;99.90
11505;DHT22;5809;53.262;10.408;2024-03-07T06:16:42;2.70;99.90
11505;DHT22;5809;53.262;10.408;2024-03-07T06:21:38;2.80;99.90
11505;DHT22;5809;53.262;10.408;2024-03-07T06:24:08;2.80;99.90
11505;DHT22;5809;53.262;10.408;2024-03-07T06:26:38;2.90;99.90
11505;DHT22;5809;53.262;10.408;2024-03-07T06:29:13;2.90;99.90
11505;DHT22;5809;53.262;10.408;2024-03-07T06:31:41;2.90;99.90
11505;DHT22;5809;53.262;10.408;2024-03-07T06:34:08;3.00;99.90
11505;DHT22;5809;53.262;10.408;2024-03-07T06:36:36;3.00;99.90
11505;DHT22;5809;53.262;10.408;2024-03-07T06:39:03;3.10;99.90
11505;DHT22;5809;53.262;10.408;2024-03-07T06:41:33;3.10;99.90
11505;DHT22;5809;53.262;10.408;2024-03-07T06:46:27;3.00;99.90
11505;DHT22;5809;53.262;10.408;2024-03-07T06:48:54;3.10;99.90
11505;DHT22;5809;53.262;10.408;2024-03-07T06:56:18;3.00;99.90
11505;DHT22;5809;53.262;10.408;2024-03-07T06:58:46;3.00;99.90
11505;DHT22;5809;53.262;10.408;2024-03-07T07:03:41;3.00;99.90
11505;DHT22;5809;53.262;10.408;2024-03-07T07:06:09;3.00;99.90
11505;DHT22;5809;53.262;10.408;2024-03-07T07:08:37;3.00;99.90
11505;DHT22;5809;53.262;10.408;2024-03-07T07:11:04;3.10;99.90
11505;DHT22;5809;53.262;10.408;2024-03-07T07:13:31;3.00;99.90
11505;DHT22;5809;53.262;10.408;2024-03-07T07:15:59;3.00;99.90
11505;DHT22;5809;53.262;10.408;2024-03-07T07:18:26;3.10;99.90
11505;DHT22;5809;53.262;10.408;2024-03-07T07:20:53;3.10;99.90
11505;DHT22;5809;53.262;10.408;2024-03-07T07:23:22;3.00;99.90
11505;DHT22;5809;53.262;10.408;2024-03-07T07:25:48;3.00;99.90
11505;DHT22;5809;53.262;10.408;2024-03-07T07:30:42;3.00;99.90
11505;DHT22;5809;53.262;10.408;2024-03-07T07:33:11;3.00;99.90
11505;DHT22;5809;53.262;10.408;2024-03-07T07:38:06;3.00;99.90
11505;DHT22;5809;53.262;10.408;2024-03-07T07:40:35;3.00;99.90
11505;DHT22;5809;53.262;10.408;2024-03-07T07:45:29;2.80;99.90
11505;DHT22;5809;53.262;10.408;2024-03-07T07:47:58;2.90;99.90
11505;DHT22;5809;53.262;10.408;2024-03-07T07:50:26;2.90;99.90
11505;DHT22;5809;53.262;10.408;2024-03-07T07:52:54;2.80;99.90
11505;DHT22;5809;53.262;10.408;2024-03-07T07:55:23;2.80;99.90
11505;DHT22;5809;53.262;10.408;2024-03-07T07:57:52;2.90;99.90
11505;DHT22;5809;53.262;10.408;2024-03-07T08:00:20;2.90;99.90
11505;DHT22;5809;53.262;10.408;2024-03-07T08:02:53;3.00;99.90
11505;DHT22;5809;53.262;10.408;2024-03-07T08:05:20;3.00;99.90
11505;DHT22;5809;53.262;10.408;2024-03-07T08:07:50;3.00;99.90
11505;DHT22;5809;53.262;10.408;2024-03-07T08:10:17;3.00;99.90
11505;DHT22;5809;53.262;10.408;2024-03-07T08:12:44;3.10;99.90
11505;DHT22;5809;53.262;10.408;2024-03-07T08:15:11;3.10;99.90
11505;DHT22;5809;53.262;10.408;2024-03-07T08:17:40;3.20;99.90
11505;DHT22;5809;53.262;10.408;2024-03-07T08:20:09;3.20;99.90
11505;DHT22;5809;53.262;10.408;2024-03-07T08:22:37;3.20;99.90
11505;DHT22;5809;53.262;10.408;2024-03-07T08:25:06;3.30;99.90
11505;DHT22;5809;53.262;10.408;2024-03-07T08:27:35;3.40;99.90
11505;DHT22;5809;53.262;10.408;2024-03-07T08:30:02;3.40;99.90
11505;DHT22;5809;53.262;10.408;2024-03-07T08:32:31;3.40;99.90
11505;DHT22;5809;53.262;10.408;2024-03-07T08:37:32;3.50;99.90
11505;DHT22;5809;53.262;10.408;2024-03-07T08:39:59;3.70;99.90
11505;DHT22;5809;53.262;10.408;2024-03-07T08:42:28;3.70;99.90
11505;DHT22;5809;53.262;10.408;2024-03-07T08:44:54;3.80;99.90
11505;DHT22;5809;53.262;10.408;2024-03-07T08:47:21;3.80;99.90
11505;DHT22;5809;53.262;10.408;2024-03-07T08:49:48;3.90;99.90
11505;DHT22;5809;53.262;10.408;2024-03-07T08:54:42;4.00;99.90
11505;DHT22;5809;53.262;10.408;2024-03-07T08:57:10;4.00;99.90
11505;DHT22;5809;53.262;10.408;2024-03-07T08:59:38;4.10;99.90
11505;DHT22;5809;53.262;10.408;2024-03-07T09:02:05;4.20;99.90
11505;DHT22;5809;53.262;10.408;2024-03-07T09:04:31;4.20;99.90
11505;DHT22;5809;53.262;10.408;2024-03-07T09:09:25;4.20;99.90
11505;DHT22;5809;53.262;10.408;2024-03-07T09:14:19;4.20;99.90
11505;DHT22;5809;53.262;10.408;2024-03-07T09:16:47;3.90;99.90
11505;DHT22;5809;53.262;10.408;2024-03-07T09:19:14;4.00;99.90
11505;DHT22;5809;53.262;10.408;2024-03-07T09:24:13;4.00;99.90
11505;DHT22;5809;53.262;10.408;2024-03-07T09:26:40;4.00;99.90
11505;DHT22;5809;53.262;10.408;2024-03-07T09:29:07;4.00;99.90
11505;DHT22;5809;53.262;10.408;2024-03-07T09:31:36;3.90;99.90
11505;DHT22;5809;53.262;10.408;2024-03-07T09:34:06;4.00;99.90
11505;DHT22;5809;53.262;10.408;2024-03-07T09:36:34;4.00;99.90
11505;DHT22;5809;53.262;10.408;2024-03-07T09:39:01;4.10;99.90
11505;DHT22;5809;53.262;10.408;2024-03-07T09:41:28;3.90;99.90
11505;DHT22;5809;53.262;10.408;2024-03-07T09:43:56;3.90;99.90
11505;DHT22;5809;53.262;10.408;2024-03-07T09:46:24;4.00;99.90
11505;DHT22;5809;53.262;10.408;2024-03-07T09:48:51;4.20;99.90
11505;DHT22;5809;53.262;10.408;2024-03-07T09:51:21;4.10;99.90
11505;DHT22;5809;53.262;10.408;2024-03-07T09:53:49;4.10;99.90
11505;DHT22;5809;53.262;10.408;2024-03-07T09:56:20;4.20;99.90
11505;DHT22;5809;53.262;10.408;2024-03-07T09:58:49;4.30;99.90
11505;DHT22;5809;53.262;10.408;2024-03-07T10:01:17;4.40;99.90
11505;DHT22;5809;53.262;10.408;2024-03-07T10:03:47;4.60;99.90
11505;DHT22;5809;53.262;10.408;2024-03-07T10:06:14;4.60;99.90
11505;DHT22;5809;53.262;10.408;2024-03-07T10:08:43;4.50;99.90
11505;DHT22;5809;53.262;10.408;2024-03-07T10:11:10;4.70;99.90
11505;DHT22;5809;53.262;10.408;2024-03-07T10:13:37;4.80;99.90
11505;DHT22;5809;53.262;10.408;2024-03-07T10:16:04;7.90;99.90
11505;DHT22;5809;53.262;10.408;2024-03-07T10:18:31;4.80;99.90
11505;DHT22;5809;53.262;10.408;2024-03-07T10:20:58;4.90;99.90
11505;DHT22;5809;53.262;10.408;2024-03-07T10:23:25;4.70;99.90
11505;DHT22;5809;53.262;10.408;2024-03-07T10:25:53;4.70;99.90
11505;DHT22;5809;53.262;10.408;2024-03-07T10:28:20;4.50;99.90
11505;DHT22;5809;53.262;10.408;2024-03-07T10:30:47;4.50;99.90
11505;DHT22;5809;53.262;10.408;2024-03-07T10:33:16;4.60;99.90
11505;DHT22;5809;53.262;10.408;2024-03-07T10:35:46;4.50;99.90
11505;DHT22;5809;53.262;10.408;2024-03-07T10:38:14;4.60;99.90
11505;DHT22;5809;53.262;10.408;2024-03-07T10:40:45;4.60;99.90
11505;DHT22;5809;53.262;10.408;2024-03-07T10:43:16;4.60;99.90
11505;DHT22;5809;53.262;10.408;2024-03-07T10:45:47;4.50;99.90
11505;DHT22;5809;53.262;10.408;2024-03-07T10:48:17;4.60;99.90
11505;DHT22;5809;53.262;10.408;2024-03-07T10:50:52;4.70;99.90
11505;DHT22;5809;53.262;10.408;2024-03-07T10:53:28;4.90;99.90
11505;DHT22;5809;53.262;10.408;2024-03-07T10:56:17;5.00;99.90
11505;DHT22;5809;53.262;10.408;2024-03-07T10:58:53;5.20;99.90
11505;DHT22;5809;53.262;10.408;2024-03-07T11:01:23;5.20;99.90
11505;DHT22;5809;53.262;10.408;2024-03-07T11:03:53;5.20;99.90
11505;DHT22;5809;53.262;10.408;2024-03-07T11:06:23;5.20;99.90
11505;DHT22;5809;53.262;10.408;2024-03-07T11:08:51;5.20;99.90
11505;DHT22;5809;53.262;10.408;2024-03-07T11:11:18;4.80;99.90
11505;DHT22;5809;53.262;10.408;2024-03-07T11:13:46;5.00;99.90
11505;DHT22;5809;53.262;10.408;2024-03-07T11:16:14;4.90;99.90
11505;DHT22;5809;53.262;10.408;2024-03-07T11:18:41;5.00;99.90
11505;DHT22;5809;53.262;10.408;2024-03-07T11:21:40;4.90;99.90
11505;DHT22;5809;53.262;10.408;2024-03-07T11:24:07;5.10;99.90
11505;DHT22;5809;53.262;10.408;2024-03-07T11:26:34;5.00;99.90
11505;DHT22;5809;53.262;10.408;2024-03-07T11:32:20;5.20;99.90
11505;DHT22;5809;53.262;10.408;2024-03-07T11:34:48;5.20;99.90
11505;DHT22;5809;53.262;10.408;2024-03-07T11:37:19;5.10;99.90
11505;DHT22;5809;53.262;10.408;2024-03-07T11:39:48;5.20;99.90
11505;DHT22;5809;53.262;10.408;2024-03-07T11:42:22;5.30;99.90
11505;DHT22;5809;53.262;10.408;2024-03-07T11:44:52;5.30;99.90
11505;DHT22;5809;53.262;10.408;2024-03-07T11:47:21;5.30;99.90
11505;DHT22;5809;53.262;10.408;2024-03-07T11:49:49;5.40;99.90
11505;DHT22;5809;53.262;10.408;2024-03-07T11:52:18;5.30;99.90
11505;DHT22;5809;53.262;10.408;2024-03-07T11:54:45;5.10;99.90
11505;DHT22;5809;53.262;10.408;2024-03-07T11:57:18;5.10;99.90
11505;DHT22;5809;53.262;10.408;2024-03-07T11:59:53;5.10;99.90
11505;DHT22;5809;53.262;10.408;2024-03-07T12:02:20;5.30;99.90
11505;DHT22;5809;53.262;10.408;2024-03-07T12:07:15;5.40;99.90
11505;DHT22;5809;53.262;10.408;2024-03-07T12:09:43;5.40;99.90
11505;DHT22;5809;53.262;10.408;2024-03-07T12:12:11;5.90;99.90
11505;DHT22;5809;53.262;10.408;2024-03-07T12:14:38;8.20;99.90
11505;DHT22;5809;53.262;10.408;2024-03-07T12:17:06;6.00;99.90
11505;DHT22;5809;53.262;10.408;2024-03-07T12:19:33;5.90;99.90
11505;DHT22;5809;53.262;10.408;2024-03-07T12:22:00;6.00;99.90
11505;DHT22;5809;53.262;10.408;2024-03-07T12:24:28;6.00;99.90
11505;DHT22;5809;53.262;10.408;2024-03-07T12:27:05;5.80;99.90
11505;DHT22;5809;53.262;10.408;2024-03-07T12:31:59;5.90;99.90
11505;DHT22;5809;53.262;10.408;2024-03-07T12:34:28;5.90;99.90
11505;DHT22;5809;53.262;10.408;2024-03-07T12:36:56;5.90;99.90
11505;DHT22;5809;53.262;10.408;2024-03-07T12:39:23;5.80;99.90
11505;DHT22;5809;53.262;10.408;2024-03-07T12:41:58;5.90;99.90
11505;DHT22;5809;53.262;10.408;2024-03-07T12:44:25;5.90;99.90
11505;DHT22;5809;53.262;10.408;2024-03-07T12:46:53;6.10;99.90
11505;DHT22;5809;53.262;10.408;2024-03-07T12:49:21;7.00;99.90
11505;DHT22;5809;53.262;10.408;2024-03-07T12:51:54;6.50;99.90
11505;DHT22;5809;53.262;10.408;2024-03-07T12:54:20;6.60;99.90
11505;DHT22;5809;53.262;10.408;2024-03-07T12:56:48;9.80;99.90
11505;DHT22;5809;53.262;10.408;2024-03-07T12:59:16;8.30;99.90
11505;DHT22;5809;53.262;10.408;2024-03-07T13:01:44;9.20;99.90
11505;DHT22;5809;53.262;10.408;2024-03-07T13:04:13;10.70;99.90
11505;DHT22;5809;53.262;10.408;2024-03-07T13:06:39;8.30;99.90
11505;DHT22;5809;53.262;10.408;2024-03-07T13:09:10;11.00;99.90
11505;DHT22;5809;53.262;10.408;2024-03-07T13:11:38;7.40;99.90
11505;DHT22;5809;53.262;10.408;2024-03-07T13:14:06;8.00;99.90
11505;DHT22;5809;53.262;10.408;2024-03-07T13:16:33;6.90;99.90
11505;DHT22;5809;53.262;10.408;2024-03-07T13:19:00;7.00;99.90
11505;DHT22;5809;53.262;10.408;2024-03-07T13:21:29;8.70;99.90
11505;DHT22;5809;53.262;10.408;2024-03-07T13:23:57;6.60;99.90
11505;DHT22;5809;53.262;10.408;2024-03-07T13:26:28;8.50;99.90
11505;DHT22;5809;53.262;10.408;2024-03-07T13:28:57;8.90;99.90
11505;DHT22;5809;53.262;10.408;2024-03-07T13:31:26;6.50;99.90
11505;DHT22;5809;53.262;10.408;2024-03-07T13:33:54;6.50;99.90
11505;DHT22;5809;53.262;10.408;2024-03-07T13:36:21;7.10;99.90
11505;DHT22;5809;53.262;10.408;2024-03-07T13:38:51;10.70;99.90
11505;DHT22;5809;53.262;10.408;2024-03-07T13:41:18;8.20;99.90
11505;DHT22;5809;53.262;10.408;2024-03-07T13:43:47;8.10;99.90
11505;DHT22;5809;53.262;10.408;2024-03-07T13:46:14;8.30;99.90
11505;DHT22;5809;53.262;10.408;2024-03-07T13:48:43;9.80;99.90
11505;DHT22;5809;53.262;10.408;2024-03-07T13:51:10;11.40;99.90
11505;DHT22;5809;53.262;10.408;2024-03-07T13:53:40;12.10;99.90
11505;DHT22;5809;53.262;10.408;2024-03-07T13:56:34;12.10;99.90
11505;DHT22;5809;53.262;10.408;2024-03-07T13:59:23;13.70;99.90
11505;DHT22;5809;53.262;10.408;2024-03-07T14:02:01;13.80;99.90
11505;DHT22;5809;53.262;10.408;2024-03-07T14:07:50;9.90;99.90
11505;DHT22;5809;53.262;10.408;2024-03-07T14:10:52;12.70;99.90
11505;DHT22;5809;53.262;10.408;2024-03-07T14:13:46;12.30;99.90
11505;DHT22;5809;53.262;10.408;2024-03-07T14:16:49;10.60;99.90
11505;DHT22;5809;53.262;10.408;2024-03-07T14:20:10;10.50;99.90
11505;DHT22;5809;53.262;10.408;2024-03-07T14:23:04;12.00;99.90
11505;DHT22;5809;53.262;10.408;2024-03-07T14:25:55;14.20;1.00
11505;DHT22;5809;53.262;10.408;2024-03-07T14:28:44;11.20;1.00
11505;DHT22;5809;53.262;10.408;2024-03-07T14:31:15;11.30;1.00
11505;DHT22;5809;53.262;10.408;2024-03-07T14:34:09;11.80;1.00
11505;DHT22;5809;53.262;10.408;2024-03-07T14:36:40;12.30;1.00
11505;DHT22;5809;53.262;10.408;2024-03-07T14:39:11;13.60;1.00
11505;DHT22;5809;53.262;10.408;2024-03-07T14:41:50;14.50;1.00
11505;DHT22;5809;53.262;10.408;2024-03-07T14:44:19;15.50;1.00
11505;DHT22;5809;53.262;10.408;2024-03-07T14:46:48;16.80;1.00
11505;DHT22;5809;53.262;10.408;2024-03-07T14:49:19;16.90;1.00
11505;DHT22;5809;53.262;10.408;2024-03-07T14:51:48;16.30;1.00
11505;DHT22;5809;53.262;10.408;2024-03-07T14:54:19;16.30;1.00
11505;DHT22;5809;53.262;10.408;2024-03-07T14:56:46;16.60;1.00
11505;DHT22;5809;53.262;10.408;2024-03-07T14:59:13;16.10;1.00
11505;DHT22;5809;53.262;10.408;2024-03-07T15:01:41;15.40;1.00
11505;DHT22;5809;53.262;10.408;2024-03-07T15:04:09;13.60;1.00
11505;DHT22;5809;53.262;10.408;2024-03-07T15:06:38;12.00;1.00
11505;DHT22;5809;53.262;10.408;2024-03-07T15:09:06;11.10;1.00
11505;DHT22;5809;53.262;10.408;2024-03-07T15:11:36;11.00;1.00
11505;DHT22;5809;53.262;10.408;2024-03-07T15:14:05;11.00;1.00
11505;DHT22;5809;53.262;10.408;2024-03-07T15:16:34;11.60;1.00
11505;DHT22;5809;53.262;10.408;2024-03-07T15:19:03;12.50;1.00
11505;DHT22;5809;53.262;10.408;2024-03-07T15:21:29;14.60;1.00
11505;DHT22;5809;53.262;10.408;2024-03-07T15:23:58;12.60;1.00
11505;DHT22;5809;53.262;10.408;2024-03-07T15:26:25;10.50;1.00
11505;DHT22;5809;53.262;10.408;2024-03-07T15:28:53;11.10;1.00
11505;DHT22;5809;53.262;10.408;2024-03-07T15:31:20;12.20;1.00
11505;DHT22;5809;53.262;10.408;2024-03-07T15:33:47;12.20;1.00
11505;DHT22;5809;53.262;10.408;2024-03-07T15:36:15;13.00;1.00
11505;DHT22;5809;53.262;10.408;2024-03-07T15:38:43;12.50;1.00
11505;DHT22;5809;53.262;10.408;2024-03-07T15:41:11;12.50;1.00
11505;DHT22;5809;53.262;10.408;2024-03-07T15:43:38;13.50;1.00
11505;DHT22;5809;53.262;10.408;2024-03-07T15:46:06;12.90;1.00
11505;DHT22;5809;53.262;10.408;2024-03-07T15:51:01;11.30;1.00
11505;DHT22;5809;53.262;10.408;2024-03-07T15:53:29;10.60;1.00
11505;DHT22;5809;53.262;10.408;2024-03-07T15:55:57;10.50;1.00
11505;DHT22;5809;53.262;10.408;2024-03-07T15:58:25;10.50;1.00
11505;DHT22;5809;53.262;10.408;2024-03-07T16:00:51;11.10;1.00
11505;DHT22;5809;53.262;10.408;2024-03-07T16:03:18;11.20;1.00
11505;DHT22;5809;53.262;10.408;2024-03-07T16:05:48;11.10;1.00
11505;DHT22;5809;53.262;10.408;2024-03-07T16:08:15;11.50;1.00
11505;DHT22;5809;53.262;10.408;2024-03-07T16:10:43;11.10;1.00
11505;DHT22;5809;53.262;10.408;2024-03-07T16:13:11;10.70;1.00
11505;DHT22;5809;53.262;10.408;2024-03-07T16:15:41;10.00;1.00
11505;DHT22;5809;53.262;10.408;2024-03-07T16:18:09;9.20;1.00
11505;DHT22;5809;53.262;10.408;2024-03-07T16:20:36;8.60;99.90
11505;DHT22;5809;53.262;10.408;2024-03-07T16:23:03;8.30;99.90
11505;DHT22;5809;53.262;10.408;2024-03-07T16:25:32;8.00;99.90
11505;DHT22;5809;53.262;10.408;2024-03-07T16:28:00;7.70;99.90
11505;DHT22;5809;53.262;10.408;2024-03-07T16:30:27;7.60;99.90
11505;DHT22;5809;53.262;10.408;2024-03-07T16:32:56;7.40;99.90
11505;DHT22;5809;53.262;10.408;2024-03-07T16:35:26;7.30;99.90
11505;DHT22;5809;53.262;10.408;2024-03-07T16:37:53;7.20;99.90
11505;DHT22;5809;53.262;10.408;2024-03-07T16:40:22;7.10;99.90
11505;DHT22;5809;53.262;10.408;2024-03-07T16:42:51;7.00;99.90
11505;DHT22;5809;53.262;10.408;2024-03-07T16:45:21;6.90;99.90
11505;DHT22;5809;53.262;10.408;2024-03-07T16:47:49;6.80;99.90
11505;DHT22;5809;53.262;10.408;2024-03-07T16:50:20;6.80;99.90
11505;DHT22;5809;53.262;10.408;2024-03-07T16:52:48;6.70;99.90
11505;DHT22;5809;53.262;10.408;2024-03-07T16:55:16;6.60;99.90
11505;DHT22;5809;53.262;10.408;2024-03-07T16:57:44;6.50;99.90
11505;DHT22;5809;53.262;10.408;2024-03-07T17:00:13;6.40;99.90
11505;DHT22;5809;53.262;10.408;2024-03-07T17:02:43;6.30;99.90
11505;DHT22;5809;53.262;10.408;2024-03-07T17:07:42;6.10;99.90
11505;DHT22;5809;53.262;10.408;2024-03-07T17:10:09;6.00;99.90
11505;DHT22;5809;53.262;10.408;2024-03-07T17:12:41;6.00;99.90
11505;DHT22;5809;53.262;10.408;2024-03-07T17:15:10;5.90;99.90
11505;DHT22;5809;53.262;10.408;2024-03-07T17:20:07;5.70;99.90
11505;DHT22;5809;53.262;10.408;2024-03-07T17:25:05;5.60;99.90
11505;DHT22;5809;53.262;10.408;2024-03-07T17:27:32;5.50;99.90
11505;DHT22;5809;53.262;10.408;2024-03-07T17:29:59;5.40;99.90